createdAt,value
2022-11-26T00:00:29.476Z,-0.10
2022-11-26T00:02:56.517Z,-0.10
2022-11-26T00:05:24.233Z,-0.10
2022-11-26T00:07:55.925Z,0.00
2022-11-26T00:10:29.274Z,0.00
2022-11-26T00:12:57.203Z,0.00
2022-11-26T00:15:26.087Z,-0.10
2022-11-26T00:17:53.876Z,-0.10
2022-11-26T00:20:29.382Z,0.10
2022-11-26T00:22:58.649Z,0.00
2022-11-26T00:25:29.053Z,-0.10
2022-11-26T00:27:57.811Z,-0.10
2022-11-26T00:30:27.199Z,0.00
2022-11-26T00:32:55.430Z,0.00
2022-11-26T00:35:23.262Z,0.00
2022-11-26T00:37:54.498Z,0.00
2022-11-26T00:40:27.603Z,0.10
2022-11-26T00:43:00.149Z,0.10
2022-11-26T00:45:31.077Z,0.10
2022-11-26T00:47:57.999Z,-0.10
2022-11-26T00:50:26.920Z,0.00
2022-11-26T00:52:56.082Z,-0.10
2022-11-26T00:55:34.116Z,0.00
2022-11-26T00:58:01.522Z,0.00
2022-11-26T01:00:33.916Z,0.10
2022-11-26T01:03:01.784Z,0.10
2022-11-26T01:05:30.387Z,0.00
2022-11-26T01:08:11.602Z,0.10
2022-11-26T01:10:38.398Z,0.20
2022-11-26T01:13:06.815Z,0.00
2022-11-26T01:15:33.626Z,-0.10
2022-11-26T01:18:00.422Z,-0.10
2022-11-26T01:20:30.044Z,-0.20
2022-11-26T01:22:58.617Z,-0.20
2022-11-26T01:25:26.966Z,-0.10
2022-11-26T01:27:54.248Z,-0.10
2022-11-26T01:30:31.434Z,0.00
2022-11-26T01:32:58.448Z,0.00
2022-11-26T01:35:25.482Z,0.00
2022-11-26T01:37:52.527Z,-0.10
2022-11-26T01:40:25.181Z,-0.20
2022-11-26T01:43:29.021Z,-0.20
2022-11-26T01:45:57.047Z,-0.40
2022-11-26T01:48:31.752Z,-0.30
2022-11-26T01:51:10.069Z,-0.20
2022-11-26T01:53:47.652Z,-0.20
2022-11-26T01:56:36.307Z,-0.20
2022-11-26T01:59:26.417Z,-0.20
2022-11-26T02:01:56.411Z,-0.20
2022-11-26T02:04:38.229Z,-0.20
2022-11-26T02:07:05.803Z,-0.30
2022-11-26T02:09:32.988Z,-0.20
2022-11-26T02:12:00.133Z,-0.20
2022-11-26T02:14:30.204Z,-0.20
2022-11-26T02:17:18.752Z,-0.20
2022-11-26T02:22:41.988Z,-0.30
2022-11-26T02:25:33.861Z,-0.20
2022-11-26T02:28:10.801Z,-0.20
2022-11-26T02:30:43.215Z,-0.30
2022-11-26T02:33:16.319Z,-0.30
2022-11-26T02:35:48.635Z,-0.20
2022-11-26T02:38:27.221Z,-0.20
2022-11-26T02:40:54.020Z,-0.20
2022-11-26T02:43:21.016Z,-0.20
2022-11-26T02:45:53.764Z,-0.20
2022-11-26T02:48:24.901Z,-0.30
2022-11-26T02:51:13.180Z,-0.40
2022-11-26T02:53:41.313Z,-0.40
2022-11-26T02:56:17.221Z,-0.30
2022-11-26T02:58:44.754Z,-0.30
2022-11-26T03:01:24.684Z,-0.50
2022-11-26T03:03:53.040Z,-0.60
2022-11-26T03:06:20.883Z,-0.50
2022-11-26T03:08:47.866Z,-0.50
2022-11-26T03:11:14.884Z,-0.50
2022-11-26T03:13:41.646Z,-0.60
2022-11-26T03:16:08.475Z,-0.70
2022-11-26T03:18:35.252Z,-0.70
2022-11-26T03:21:02.273Z,-0.60
2022-11-26T03:23:31.869Z,-0.60
2022-11-26T03:25:58.741Z,-0.70
2022-11-26T03:28:25.638Z,-0.70
2022-11-26T03:30:53.404Z,-0.70
2022-11-26T03:33:20.548Z,-0.70
2022-11-26T03:35:48.592Z,-0.60
2022-11-26T03:38:15.750Z,-0.60
2022-11-26T03:40:42.780Z,-0.70
2022-11-26T03:43:09.774Z,-0.80
2022-11-26T03:45:36.601Z,-0.70
2022-11-26T03:48:03.484Z,-0.70
2022-11-26T03:50:30.246Z,-0.80
2022-11-26T03:52:57.117Z,-0.80
2022-11-26T03:55:23.837Z,-0.80
2022-11-26T03:57:50.668Z,-0.80
2022-11-26T04:00:17.945Z,-0.80
2022-11-26T04:02:44.734Z,-0.70
2022-11-26T04:05:11.553Z,-0.80
2022-11-26T04:07:38.369Z,-0.70
2022-11-26T04:10:05.948Z,-0.80
2022-11-26T04:12:32.709Z,-0.80
2022-11-26T04:14:59.578Z,-0.90
2022-11-26T04:17:26.421Z,-0.90
2022-11-26T04:19:53.297Z,-1.00
2022-11-26T04:22:20.080Z,-1.00
2022-11-26T04:24:46.784Z,-0.90
2022-11-26T04:27:13.571Z,-0.90
2022-11-26T04:29:40.359Z,-0.90
2022-11-26T04:32:07.305Z,-1.00
2022-11-26T04:34:34.158Z,-1.10
2022-11-26T04:37:00.988Z,-0.90
2022-11-26T04:39:27.763Z,-1.00
2022-11-26T04:41:54.623Z,-0.90
2022-11-26T04:44:22.808Z,-0.80
2022-11-26T04:46:49.626Z,-0.70
2022-11-26T04:49:16.431Z,-0.90
2022-11-26T04:51:44.151Z,-1.00
2022-11-26T04:54:13.210Z,-1.00
2022-11-26T04:56:40.466Z,-1.00
2022-11-26T04:59:07.549Z,-1.20
2022-11-26T05:04:01.654Z,-1.30
2022-11-26T05:06:28.426Z,-1.20
2022-11-26T05:08:55.262Z,-1.10
2022-11-26T05:11:22.115Z,-1.00
2022-11-26T05:13:48.862Z,-1.00
2022-11-26T05:16:15.676Z,-1.00
2022-11-26T05:18:43.371Z,-1.00
2022-11-26T05:21:10.412Z,-0.90
2022-11-26T05:23:37.161Z,-0.90
2022-11-26T05:26:03.941Z,-0.80
2022-11-26T05:28:30.802Z,-0.90
2022-11-26T05:30:59.342Z,-0.90
2022-11-26T05:35:54.015Z,-0.90
2022-11-26T05:38:21.092Z,-0.80
2022-11-26T05:40:47.945Z,-0.70
2022-11-26T05:43:15.109Z,-0.70
2022-11-26T05:45:41.981Z,-0.50
2022-11-26T05:48:08.816Z,-0.70
2022-11-26T05:50:35.713Z,-0.60
2022-11-26T05:53:02.930Z,-0.60
2022-11-26T05:55:29.960Z,-0.70
2022-11-26T05:57:56.804Z,-0.50
2022-11-26T06:00:23.778Z,-0.30
2022-11-26T06:02:50.861Z,-0.20
2022-11-26T06:05:17.828Z,-0.20
2022-11-26T06:07:45.243Z,-0.20
2022-11-26T06:10:12.997Z,-0.20
2022-11-26T06:12:39.728Z,-0.20
2022-11-26T06:15:06.967Z,-0.30
2022-11-26T06:17:33.783Z,-0.10
2022-11-26T06:20:00.556Z,-0.30
2022-11-26T06:22:27.402Z,-0.30
2022-11-26T06:24:54.130Z,-0.30
2022-11-26T06:27:20.897Z,-0.30
2022-11-26T06:29:47.660Z,-0.20
2022-11-26T06:32:14.430Z,-0.20
2022-11-26T06:34:43.930Z,-0.20
2022-11-26T06:37:11.062Z,-0.10
2022-11-26T06:39:37.841Z,-0.10
2022-11-26T06:42:04.680Z,0.20
2022-11-26T06:44:31.593Z,0.10
2022-11-26T06:46:58.410Z,0.10
2022-11-26T06:49:25.168Z,0.00
2022-11-26T06:51:53.505Z,0.10
2022-11-26T06:54:20.841Z,0.40
2022-11-26T06:56:47.769Z,0.50
2022-11-26T06:59:14.732Z,0.30
2022-11-26T07:01:41.605Z,0.20
2022-11-26T07:04:10.533Z,0.30
2022-11-26T07:06:37.395Z,0.50
2022-11-26T07:09:06.686Z,0.40
2022-11-26T07:11:34.353Z,0.30
2022-11-26T07:14:01.652Z,0.30
2022-11-26T07:16:29.396Z,0.40
2022-11-26T07:19:02.716Z,0.60
2022-11-26T07:21:30.327Z,0.80
2022-11-26T07:23:58.024Z,0.90
2022-11-26T07:26:24.776Z,0.80
2022-11-26T07:28:51.798Z,0.80
2022-11-26T07:31:20.749Z,0.90
2022-11-26T07:33:47.821Z,0.80
2022-11-26T07:36:27.142Z,0.80
2022-11-26T07:38:55.703Z,1.00
2022-11-26T07:41:25.191Z,1.10
2022-11-26T07:43:52.451Z,1.00
2022-11-26T07:46:22.327Z,1.00
2022-11-26T07:48:49.671Z,1.00
2022-11-26T07:51:20.493Z,1.00
2022-11-26T07:53:47.611Z,1.10
2022-11-26T07:56:15.155Z,1.20
2022-11-26T07:58:42.091Z,1.30
2022-11-26T08:01:14.986Z,1.30
2022-11-26T08:03:44.006Z,1.50
2022-11-26T08:06:13.318Z,1.60
2022-11-26T08:08:40.519Z,1.70
2022-11-26T08:11:19.736Z,1.90
2022-11-26T08:13:47.731Z,2.10
2022-11-26T08:16:15.595Z,2.20
2022-11-26T08:18:42.521Z,2.50
2022-11-26T08:21:09.362Z,2.60
2022-11-26T08:23:37.198Z,2.70
2022-11-26T08:26:33.659Z,2.70
2022-11-26T08:28:59.206Z,2.80
2022-11-26T08:31:26.119Z,2.90
2022-11-26T08:33:55.627Z,3.00
2022-11-26T08:36:22.493Z,2.90
2022-11-26T08:38:49.410Z,3.00
2022-11-26T08:41:16.185Z,3.00
2022-11-26T08:44:05.610Z,2.90
2022-11-26T08:46:29.797Z,2.80
2022-11-26T08:48:57.890Z,3.00
2022-11-26T08:51:25.793Z,2.80
2022-11-26T08:53:53.723Z,2.90
2022-11-26T08:56:22.716Z,3.00
2022-11-26T08:58:49.594Z,3.00
2022-11-26T09:01:22.157Z,2.80
2022-11-26T09:03:53.406Z,2.80
2022-11-26T09:06:24.236Z,2.90
2022-11-26T09:08:51.563Z,2.90
2022-11-26T09:11:18.363Z,2.80
2022-11-26T09:13:45.119Z,2.70
2022-11-26T09:16:11.901Z,2.80
2022-11-26T09:18:38.738Z,2.90
2022-11-26T09:21:05.679Z,2.90
2022-11-26T09:23:32.456Z,2.90
2022-11-26T09:25:59.250Z,3.00
2022-11-26T09:28:27.246Z,3.00
2022-11-26T09:31:01.914Z,3.10
2022-11-26T09:33:29.527Z,3.20
2022-11-26T09:36:08.619Z,3.10
2022-11-26T09:38:36.009Z,3.00
2022-11-26T09:41:38.983Z,3.10
2022-11-26T09:44:17.642Z,3.10
2022-11-26T09:47:12.162Z,3.10
2022-11-26T09:50:26.965Z,3.20
2022-11-26T09:53:00.243Z,3.30
2022-11-26T09:55:32.002Z,3.30
2022-11-26T09:58:04.004Z,3.40
2022-11-26T10:00:46.877Z,3.50
2022-11-26T10:03:23.018Z,3.50
2022-11-26T10:05:52.880Z,3.50
2022-11-26T10:08:46.903Z,3.50
2022-11-26T10:11:41.257Z,3.60
2022-11-26T10:14:42.394Z,3.40
2022-11-26T10:17:44.804Z,3.40
2022-11-26T10:20:30.326Z,3.50
2022-11-26T10:23:02.803Z,3.50
2022-11-26T10:25:38.755Z,3.70
2022-11-26T10:28:21.193Z,3.90
2022-11-26T10:30:57.747Z,3.80
2022-11-26T10:33:27.961Z,3.80
2022-11-26T10:35:54.809Z,3.90
2022-11-26T10:38:21.604Z,4.00
2022-11-26T10:40:48.481Z,4.20
2022-11-26T10:43:22.462Z,4.10
2022-11-26T10:45:55.053Z,4.30
2022-11-26T10:48:22.033Z,4.40
2022-11-26T10:51:21.231Z,4.30
2022-11-26T10:53:58.056Z,4.30
2022-11-26T10:56:35.259Z,4.30
2022-11-26T10:59:04.775Z,4.40
2022-11-26T11:01:39.626Z,4.50
2022-11-26T11:04:39.556Z,4.50
2022-11-26T11:07:11.801Z,4.50
2022-11-26T11:09:38.883Z,4.60
2022-11-26T11:12:16.463Z,4.70
2022-11-26T11:14:44.103Z,4.70
2022-11-26T11:17:40.233Z,4.70
2022-11-26T11:20:16.021Z,4.60
2022-11-26T11:22:46.868Z,4.70
2022-11-26T11:25:23.624Z,4.70
2022-11-26T11:27:51.109Z,4.70
2022-11-26T11:30:30.158Z,4.70
2022-11-26T11:33:09.095Z,4.70
2022-11-26T11:35:35.990Z,4.70
2022-11-26T11:38:02.830Z,4.70
2022-11-26T11:40:30.984Z,4.80
2022-11-26T11:43:02.290Z,4.80
2022-11-26T11:45:40.248Z,4.70
2022-11-26T11:48:19.795Z,4.70
2022-11-26T11:51:00.469Z,4.80
2022-11-26T11:53:44.935Z,4.70
2022-11-26T11:56:41.684Z,4.70
2022-11-26T11:59:08.429Z,4.70
2022-11-26T12:01:41.064Z,4.90
2022-11-26T12:04:40.931Z,4.80
2022-11-26T12:07:31.945Z,4.70
2022-11-26T12:10:24.820Z,4.80
2022-11-26T12:12:58.530Z,4.80
2022-11-26T12:15:35.596Z,4.90
2022-11-26T12:18:34.943Z,4.90
2022-11-26T12:21:40.624Z,4.90
2022-11-26T12:24:13.979Z,4.90
2022-11-26T12:26:47.840Z,4.90
2022-11-26T12:29:25.089Z,5.00
2022-11-26T12:31:56.598Z,4.90
2022-11-26T12:34:41.226Z,4.90
2022-11-26T12:37:38.277Z,4.90
2022-11-26T12:40:45.794Z,4.90
2022-11-26T12:43:35.668Z,5.00
2022-11-26T12:46:10.623Z,4.90
2022-11-26T12:48:46.063Z,4.90
2022-11-26T12:51:56.513Z,4.90
2022-11-26T12:54:32.193Z,5.00
2022-11-26T12:57:10.528Z,4.90
2022-11-26T12:59:47.892Z,5.00
2022-11-26T13:02:40.192Z,5.00
2022-11-26T13:05:07.598Z,4.90
2022-11-26T13:07:50.653Z,5.10
2022-11-26T13:10:52.274Z,5.10
2022-11-26T13:13:34.163Z,5.10
2022-11-26T13:16:20.474Z,5.10
2022-11-26T13:18:59.201Z,5.00
2022-11-26T13:21:41.525Z,5.00
2022-11-26T13:24:15.995Z,5.00
2022-11-26T13:27:16.210Z,5.00
2022-11-26T13:29:57.838Z,5.00
2022-11-26T13:32:35.669Z,5.00
2022-11-26T13:35:15.971Z,5.10
2022-11-26T13:37:58.349Z,5.40
2022-11-26T13:40:28.326Z,5.50
2022-11-26T13:43:13.673Z,5.50
2022-11-26T13:46:25.185Z,5.60
2022-11-26T13:49:15.003Z,5.60
2022-11-26T13:51:55.923Z,5.70
2022-11-26T13:54:40.170Z,5.80
2022-11-26T13:57:19.101Z,5.90
2022-11-26T13:59:48.830Z,5.80
2022-11-26T14:02:33.940Z,5.80
2022-11-26T14:05:02.415Z,5.90
2022-11-26T14:07:29.353Z,5.90
2022-11-26T14:10:01.164Z,5.90
2022-11-26T14:13:02.099Z,5.80
2022-11-26T14:15:41.170Z,5.80
2022-11-26T14:18:10.305Z,5.70
2022-11-26T14:20:58.990Z,5.70
2022-11-26T14:23:41.858Z,5.80
2022-11-26T14:26:15.641Z,5.70
2022-11-26T14:28:42.608Z,5.60
2022-11-26T14:31:21.906Z,5.70
2022-11-26T14:33:51.549Z,5.60
2022-11-26T14:36:27.578Z,5.70
2022-11-26T14:39:11.928Z,5.70
2022-11-26T14:41:41.787Z,5.70
2022-11-26T14:44:16.051Z,5.60
2022-11-26T14:46:46.463Z,5.70
2022-11-26T14:49:22.431Z,5.70
2022-11-26T14:51:51.044Z,5.70
2022-11-26T14:54:51.702Z,5.70
2022-11-26T14:57:38.549Z,5.70
2022-11-26T15:00:20.928Z,5.70
2022-11-26T15:02:48.319Z,5.60
2022-11-26T15:05:16.711Z,5.70
2022-11-26T15:07:44.810Z,5.60
2022-11-26T15:10:14.708Z,5.60
2022-11-26T15:12:42.857Z,5.50
2022-11-26T15:15:15.789Z,5.50
2022-11-26T15:17:46.911Z,5.50
2022-11-26T15:20:17.140Z,5.60
2022-11-26T15:22:53.556Z,5.60
2022-11-26T15:25:21.766Z,5.60
2022-11-26T15:27:59.576Z,5.60
2022-11-26T15:30:33.817Z,5.60
2022-11-26T15:33:08.058Z,5.70
2022-11-26T15:35:35.887Z,5.70
2022-11-26T15:38:10.887Z,5.70
2022-11-26T15:40:53.749Z,5.70
2022-11-26T15:43:23.460Z,5.90
2022-11-26T15:45:52.923Z,5.80
2022-11-26T15:48:51.038Z,5.80
2022-11-26T15:51:29.457Z,6.00
2022-11-26T15:54:00.685Z,5.80
2022-11-26T15:56:36.842Z,5.80
2022-11-26T15:59:12.585Z,5.80
2022-11-26T16:01:43.285Z,5.80
2022-11-26T16:04:33.110Z,5.80
2022-11-26T16:07:35.603Z,5.80
2022-11-26T16:10:28.836Z,5.70
2022-11-26T16:13:28.241Z,5.60
2022-11-26T16:16:01.136Z,5.70
2022-11-26T16:18:48.018Z,5.80
2022-11-26T16:21:19.111Z,5.70
2022-11-26T16:23:54.112Z,5.60
2022-11-26T16:26:21.235Z,5.70
2022-11-26T16:28:48.369Z,5.70
2022-11-26T16:31:16.600Z,5.60
2022-11-26T16:33:43.931Z,5.70
2022-11-26T16:36:32.961Z,5.70
2022-11-26T16:38:59.766Z,5.70
2022-11-26T16:41:26.846Z,5.60
2022-11-26T16:43:53.919Z,5.70
2022-11-26T16:46:23.352Z,5.70
2022-11-26T16:48:51.840Z,5.50
2022-11-26T16:51:19.173Z,5.70
2022-11-26T16:53:46.301Z,5.70
2022-11-26T16:56:30.857Z,5.70
2022-11-26T16:58:59.281Z,5.70
2022-11-26T17:01:26.511Z,5.70
2022-11-26T17:03:53.410Z,5.60
2022-11-26T17:06:27.732Z,5.60
2022-11-26T17:08:55.964Z,5.60
2022-11-26T17:11:23.950Z,5.50
2022-11-26T17:13:50.912Z,5.50
2022-11-26T17:16:20.741Z,5.60
2022-11-26T17:18:48.263Z,5.70
2022-11-26T17:21:16.053Z,5.70
2022-11-26T17:23:43.204Z,5.80
2022-11-26T17:26:21.712Z,5.70
2022-11-26T17:28:48.991Z,5.80
2022-11-26T17:31:16.218Z,5.80
2022-11-26T17:33:43.916Z,5.70
2022-11-26T17:36:17.588Z,5.70
2022-11-26T17:38:45.369Z,5.70
2022-11-26T17:41:12.888Z,5.80
2022-11-26T17:43:39.958Z,5.80
2022-11-26T17:46:21.146Z,5.90
2022-11-26T17:48:51.455Z,5.90
2022-11-26T17:51:21.650Z,5.90
2022-11-26T17:53:49.245Z,5.80
2022-11-26T17:56:28.590Z,5.90
2022-11-26T17:58:55.490Z,5.90
2022-11-26T18:01:22.484Z,5.80
2022-11-26T18:03:49.239Z,5.80
2022-11-26T18:06:32.123Z,5.90
2022-11-26T18:08:59.081Z,6.00
2022-11-26T18:11:44.516Z,5.90
2022-11-26T18:14:12.307Z,5.90
2022-11-26T18:16:39.707Z,5.80
2022-11-26T18:19:11.686Z,5.90
2022-11-26T18:21:38.965Z,5.90
2022-11-26T18:24:07.223Z,5.90
2022-11-26T18:26:35.721Z,6.00
2022-11-26T18:29:04.336Z,6.00
2022-11-26T18:31:36.651Z,6.10
2022-11-26T18:34:07.216Z,6.00
2022-11-26T18:36:34.435Z,5.90
2022-11-26T18:39:03.656Z,6.10
2022-11-26T18:41:31.046Z,6.00
2022-11-26T18:43:58.392Z,6.00
2022-11-26T18:46:25.738Z,5.90
2022-11-26T18:48:53.050Z,6.00
2022-11-26T18:51:20.266Z,5.90
2022-11-26T18:53:47.455Z,5.80
2022-11-26T18:56:16.953Z,5.70
2022-11-26T18:58:44.623Z,5.60
2022-11-26T19:01:23.841Z,5.60
2022-11-26T19:03:51.490Z,5.50
2022-11-26T19:06:22.294Z,5.50
2022-11-26T19:08:51.891Z,5.60
2022-11-26T19:11:26.157Z,5.50
2022-11-26T19:13:53.529Z,5.50
2022-11-26T19:16:22.628Z,5.50
2022-11-26T19:18:50.138Z,5.60
2022-11-26T19:21:26.355Z,5.50
2022-11-26T19:23:55.445Z,5.50
2022-11-26T19:26:23.831Z,5.40
2022-11-26T19:28:52.047Z,5.40
2022-11-26T19:31:22.356Z,5.40
2022-11-26T19:33:57.282Z,5.40
2022-11-26T19:36:24.460Z,5.40
2022-11-26T19:38:58.604Z,5.40
2022-11-26T19:41:26.832Z,5.30
2022-11-26T19:43:53.992Z,5.30
2022-11-26T19:46:22.914Z,5.30
2022-11-26T19:48:52.005Z,5.30
2022-11-26T19:51:21.784Z,5.40
2022-11-26T19:53:51.986Z,5.30
2022-11-26T19:56:22.471Z,5.40
2022-11-26T19:58:51.663Z,5.30
2022-11-26T20:01:18.907Z,5.40
2022-11-26T20:03:46.404Z,5.50
2022-11-26T20:06:20.478Z,5.50
2022-11-26T20:08:48.744Z,5.50
2022-11-26T20:11:17.384Z,5.40
2022-11-26T20:13:46.330Z,5.40
2022-11-26T20:16:17.249Z,5.30
2022-11-26T20:18:45.680Z,5.30
2022-11-26T20:21:24.704Z,5.30
2022-11-26T20:23:53.534Z,5.30
2022-11-26T20:26:26.713Z,5.20
2022-11-26T20:28:55.465Z,5.30
2022-11-26T20:31:24.426Z,5.30
2022-11-26T20:33:55.170Z,5.30
2022-11-26T20:36:23.554Z,5.40
2022-11-26T20:39:02.162Z,5.30
2022-11-26T20:41:29.884Z,5.40
2022-11-26T20:43:59.435Z,5.30
2022-11-26T20:46:30.821Z,5.20
2022-11-26T20:48:58.388Z,5.20
2022-11-26T20:51:25.936Z,5.10
2022-11-26T20:53:54.310Z,5.20
2022-11-26T20:56:22.896Z,5.10
2022-11-26T20:58:52.204Z,5.10
2022-11-26T21:01:25.548Z,5.00
2022-11-26T21:03:54.204Z,5.00
2022-11-26T21:06:29.273Z,4.90
2022-11-26T21:09:00.083Z,4.90
2022-11-26T21:11:27.102Z,4.80
2022-11-26T21:13:53.972Z,4.80
2022-11-26T21:16:20.916Z,4.80
2022-11-26T21:18:48.042Z,4.90
2022-11-26T21:21:17.456Z,5.00
2022-11-26T21:23:45.446Z,4.90
2022-11-26T21:26:16.582Z,5.00
2022-11-26T21:28:43.654Z,4.90
2022-11-26T21:31:15.409Z,4.70
2022-11-26T21:33:42.825Z,4.80
2022-11-26T21:36:11.946Z,4.70
2022-11-26T21:38:39.184Z,4.80
2022-11-26T21:41:11.117Z,4.70
2022-11-26T21:43:40.818Z,4.80
2022-11-26T21:46:10.231Z,4.70
2022-11-26T21:48:37.434Z,4.70
2022-11-26T21:51:08.970Z,4.80
2022-11-26T21:53:36.179Z,4.80
2022-11-26T21:56:12.535Z,4.80
2022-11-26T21:58:39.733Z,4.80
2022-11-26T22:01:28.437Z,4.70
2022-11-26T22:03:57.488Z,4.70
2022-11-26T22:06:24.529Z,4.70
2022-11-26T22:08:52.404Z,4.70
2022-11-26T22:11:22.229Z,4.60
2022-11-26T22:13:49.662Z,4.70
2022-11-26T22:16:18.491Z,4.60
2022-11-26T22:18:46.728Z,4.40
2022-11-26T22:21:26.426Z,4.60
2022-11-26T22:23:53.680Z,4.60
2022-11-26T22:26:21.117Z,4.70
2022-11-26T22:28:48.622Z,4.60
2022-11-26T22:31:24.781Z,4.60
2022-11-26T22:33:55.766Z,4.60
2022-11-26T22:36:22.941Z,4.60
2022-11-26T22:38:49.765Z,4.40
2022-11-26T22:41:16.689Z,4.50
2022-11-26T22:43:43.524Z,4.40
2022-11-26T22:46:15.987Z,4.40
2022-11-26T22:48:43.362Z,4.40
2022-11-26T22:51:10.688Z,4.50
2022-11-26T22:53:37.644Z,4.50
2022-11-26T22:56:05.358Z,4.40
2022-11-26T22:58:34.186Z,4.40
2022-11-26T23:01:04.424Z,4.40
2022-11-26T23:03:33.973Z,4.30
2022-11-26T23:06:09.314Z,4.30
2022-11-26T23:08:37.112Z,4.20
2022-11-26T23:11:19.529Z,4.20
2022-11-26T23:13:47.378Z,4.20
2022-11-26T23:16:14.859Z,4.40
2022-11-26T23:18:41.976Z,4.40
2022-11-26T23:21:13.783Z,4.30
2022-11-26T23:23:41.233Z,4.30
2022-11-26T23:26:10.988Z,4.30
2022-11-26T23:28:40.492Z,4.30
2022-11-26T23:31:12.580Z,4.10
2022-11-26T23:33:39.654Z,4.20
2022-11-26T23:36:07.099Z,4.30
2022-11-26T23:38:34.941Z,4.20
2022-11-26T23:41:04.407Z,4.20
2022-11-26T23:43:32.769Z,4.30
2022-11-26T23:46:21.591Z,4.20
2022-11-26T23:48:49.600Z,4.20
2022-11-26T23:51:19.072Z,4.20
2022-11-26T23:53:47.121Z,4.20
2022-11-26T23:56:20.410Z,4.10
2022-11-26T23:58:51.842Z,4.10
